createdAt,value
2023-05-09T00:00:50.452Z,2.25
2023-05-09T00:03:18.664Z,2.28
2023-05-09T00:05:47.756Z,2.05
2023-05-09T00:08:16.308Z,2.10
2023-05-09T00:10:46.294Z,2.22
2023-05-09T00:13:14.752Z,2.42
2023-05-09T00:15:44.626Z,2.15
2023-05-09T00:18:13.205Z,2.40
2023-05-09T00:20:42.493Z,2.10
2023-05-09T00:23:10.573Z,2.20
2023-05-09T00:25:38.934Z,2.63
2023-05-09T00:28:08.430Z,2.72
2023-05-09T00:30:37.038Z,2.45
2023-05-09T00:33:05.370Z,2.65
2023-05-09T00:35:34.866Z,2.22
2023-05-09T00:38:03.047Z,2.25
2023-05-09T00:40:31.594Z,2.35
2023-05-09T00:43:00.467Z,2.60
2023-05-09T00:45:29.989Z,2.60
2023-05-09T00:47:58.556Z,2.95
2023-05-09T00:50:26.995Z,2.90
2023-05-09T00:52:55.141Z,2.65
2023-05-09T00:55:25.097Z,3.08
2023-05-09T00:57:54.077Z,2.53
2023-05-09T01:00:22.310Z,2.65
2023-05-09T01:02:54.321Z,2.50
2023-05-09T01:05:23.707Z,2.50
2023-05-09T01:08:14.263Z,2.60
2023-05-09T01:10:49.413Z,3.03
2023-05-09T01:13:24.978Z,3.05
2023-05-09T01:15:59.991Z,3.13
2023-05-09T01:18:34.559Z,3.25
2023-05-09T01:21:07.984Z,2.92
2023-05-09T01:24:29.863Z,3.03
2023-05-09T01:27:17.189Z,2.85
2023-05-09T01:29:48.999Z,3.28
2023-05-09T01:32:21.532Z,2.72
2023-05-09T01:34:53.637Z,2.92
2023-05-09T01:37:30.130Z,2.83
2023-05-09T01:40:02.255Z,3.38
2023-05-09T01:42:40.889Z,3.45
2023-05-09T01:45:12.138Z,2.63
2023-05-09T01:47:42.003Z,3.08
2023-05-09T01:50:12.714Z,2.60
2023-05-09T01:52:43.307Z,2.70
2023-05-09T01:55:13.100Z,3.47
2023-05-09T01:57:43.207Z,2.80
2023-05-09T02:00:14.921Z,2.83
2023-05-09T02:02:44.336Z,2.88
2023-05-09T02:05:13.682Z,3.00
2023-05-09T02:07:42.938Z,3.70
2023-05-09T02:10:11.935Z,3.58
2023-05-09T02:12:41.072Z,3.35
2023-05-09T02:15:10.521Z,3.22
2023-05-09T02:17:40.009Z,3.10
2023-05-09T02:20:11.857Z,3.17
2023-05-09T02:22:42.402Z,3.33
2023-05-09T02:25:15.749Z,3.75
2023-05-09T02:27:46.185Z,3.70
2023-05-09T02:30:19.029Z,3.58
2023-05-09T02:32:51.665Z,3.40
2023-05-09T02:35:21.081Z,3.22
2023-05-09T02:37:49.807Z,3.65
2023-05-09T02:40:19.531Z,3.25
2023-05-09T02:42:47.747Z,3.90
2023-05-09T02:45:16.396Z,3.20
2023-05-09T02:47:44.745Z,3.60
2023-05-09T02:50:14.962Z,3.83
2023-05-09T02:52:43.124Z,3.22
2023-05-09T02:55:12.197Z,3.47
2023-05-09T02:57:40.720Z,3.42
2023-05-09T03:00:10.371Z,4.13
2023-05-09T03:02:39.495Z,4.25
2023-05-09T03:05:08.948Z,3.38
2023-05-09T03:07:38.743Z,4.03
2023-05-09T03:10:07.780Z,4.30
2023-05-09T03:12:36.146Z,4.07
2023-05-09T03:15:04.527Z,4.38
2023-05-09T03:17:32.745Z,3.55
2023-05-09T03:20:03.213Z,3.60
2023-05-09T03:22:32.600Z,4.03
2023-05-09T03:25:02.340Z,3.83
2023-05-09T03:27:30.533Z,3.72
2023-05-09T03:29:58.917Z,4.43
2023-05-09T03:32:29.148Z,3.95
2023-05-09T03:34:57.642Z,3.92
2023-05-09T03:37:27.267Z,3.97
2023-05-09T03:39:55.472Z,4.28
2023-05-09T03:42:25.252Z,4.20
2023-05-09T03:44:54.986Z,4.05
2023-05-09T03:47:23.562Z,4.15
2023-05-09T03:49:53.570Z,4.47
2023-05-09T03:52:21.753Z,4.00
2023-05-09T03:54:49.845Z,3.80
2023-05-09T03:57:17.994Z,4.68
2023-05-09T03:59:47.863Z,3.70
2023-05-09T04:02:16.600Z,4.28
2023-05-09T04:04:44.842Z,4.38
2023-05-09T04:07:13.455Z,4.13
2023-05-09T04:09:42.392Z,4.13
2023-05-09T04:12:10.486Z,4.47
2023-05-09T04:14:39.484Z,4.38
2023-05-09T04:17:08.938Z,4.20
2023-05-09T04:19:37.322Z,4.00
2023-05-09T04:22:05.968Z,4.15
2023-05-09T04:24:34.158Z,4.20
2023-05-09T04:27:02.632Z,4.50
2023-05-09T04:29:31.253Z,4.30
2023-05-09T04:31:59.465Z,4.20
2023-05-09T04:34:30.053Z,4.20
2023-05-09T04:36:58.706Z,4.40
2023-05-09T04:39:27.199Z,4.40
2023-05-09T04:41:55.378Z,4.25
2023-05-09T04:44:24.765Z,4.30
2023-05-09T04:46:55.118Z,4.22
2023-05-09T04:49:23.665Z,4.20
2023-05-09T04:51:53.725Z,4.57
2023-05-09T04:54:21.942Z,4.63
2023-05-09T04:56:50.787Z,4.32
2023-05-09T04:59:18.949Z,4.00
2023-05-09T05:01:47.384Z,4.53
2023-05-09T05:04:15.588Z,3.60
2023-05-09T05:06:44.109Z,4.03
2023-05-09T05:09:14.052Z,3.80
2023-05-09T05:11:50.552Z,4.18
2023-05-09T05:14:25.494Z,3.80
2023-05-09T05:16:53.894Z,3.95
2023-05-09T05:19:22.021Z,3.67
2023-05-09T05:21:50.141Z,4.80
2023-05-09T05:24:20.016Z,3.60
2023-05-09T05:26:48.108Z,3.88
2023-05-09T05:29:16.662Z,3.78
2023-05-09T05:31:44.836Z,3.55
2023-05-09T05:34:13.731Z,3.95
2023-05-09T05:36:42.035Z,3.67
2023-05-09T05:39:10.149Z,3.65
2023-05-09T05:41:39.927Z,3.20
2023-05-09T05:44:08.056Z,4.30
2023-05-09T05:46:36.155Z,3.97
2023-05-09T05:49:04.644Z,3.63
2023-05-09T05:51:33.150Z,3.78
2023-05-09T05:54:01.234Z,4.22
2023-05-09T05:56:29.638Z,3.85
2023-05-09T05:58:59.097Z,3.38
2023-05-09T06:01:27.508Z,3.78
2023-05-09T06:03:56.530Z,3.53
2023-05-09T06:06:25.532Z,3.58
2023-05-09T06:08:53.610Z,3.42
2023-05-09T06:11:22.286Z,3.97
2023-05-09T06:13:50.523Z,2.60
2023-05-09T06:16:21.371Z,3.08
2023-05-09T06:18:49.787Z,3.22
2023-05-09T06:21:17.991Z,3.05
2023-05-09T06:26:17.232Z,2.67
2023-05-09T06:28:45.845Z,2.90
2023-05-09T06:31:14.274Z,3.20
2023-05-09T06:33:43.801Z,3.17
2023-05-09T06:36:12.276Z,3.25
2023-05-09T06:38:40.498Z,2.95
2023-05-09T06:41:08.827Z,2.88
2023-05-09T06:43:36.939Z,3.28
2023-05-09T06:46:05.142Z,3.50
2023-05-09T06:48:33.597Z,3.10
2023-05-09T06:51:03.090Z,3.08
2023-05-09T06:53:31.488Z,2.88
2023-05-09T06:55:59.688Z,3.88
2023-05-09T06:58:28.549Z,3.03
2023-05-09T07:00:56.820Z,3.50
2023-05-09T07:03:25.333Z,3.13
2023-05-09T07:05:53.551Z,3.38
2023-05-09T07:08:23.044Z,3.60
2023-05-09T07:10:51.256Z,3.00
2023-05-09T07:13:19.816Z,3.10
2023-05-09T07:15:47.972Z,3.38
2023-05-09T07:18:16.098Z,2.53
2023-05-09T07:20:44.476Z,3.08
2023-05-09T07:23:12.567Z,2.45
2023-05-09T07:25:42.039Z,2.85
2023-05-09T07:28:12.792Z,2.13
2023-05-09T07:30:40.905Z,2.22
2023-05-09T07:33:09.598Z,2.78
2023-05-09T07:35:37.707Z,2.83
2023-05-09T07:38:06.522Z,2.47
2023-05-09T07:40:36.486Z,2.53
2023-05-09T07:43:06.137Z,3.17
2023-05-09T07:45:35.094Z,2.70
2023-05-09T07:48:03.523Z,3.17
2023-05-09T07:50:31.797Z,2.40
2023-05-09T07:53:00.122Z,3.03
2023-05-09T07:55:28.289Z,2.90
2023-05-09T07:57:56.503Z,2.28
2023-05-09T08:00:26.683Z,2.83
2023-05-09T08:02:55.133Z,3.00
2023-05-09T08:05:23.818Z,2.78
2023-05-09T08:07:51.917Z,3.40
2023-05-09T08:10:21.855Z,3.05
2023-05-09T08:12:50.127Z,3.10
2023-05-09T08:15:18.338Z,3.15
2023-05-09T08:17:47.991Z,2.85
2023-05-09T08:20:16.465Z,3.05
2023-05-09T08:22:44.690Z,3.42
2023-05-09T08:25:14.588Z,2.90
2023-05-09T08:27:43.250Z,3.00
2023-05-09T08:30:12.600Z,3.03
2023-05-09T08:32:40.726Z,2.50
2023-05-09T08:35:11.009Z,3.15
2023-05-09T08:37:39.110Z,3.05
2023-05-09T08:40:08.692Z,3.53
2023-05-09T08:42:39.077Z,2.75
2023-05-09T08:45:12.312Z,2.40
2023-05-09T08:47:41.224Z,2.88
2023-05-09T08:50:11.653Z,3.05
2023-05-09T08:52:40.043Z,2.63
2023-05-09T08:55:08.665Z,2.70
2023-05-09T08:57:37.162Z,2.85
2023-05-09T09:00:06.826Z,2.53
2023-05-09T09:02:37.402Z,2.58
2023-05-09T09:07:39.871Z,2.70
2023-05-09T09:10:10.672Z,2.92
2023-05-09T09:12:39.544Z,2.50
2023-05-09T09:15:13.574Z,2.72
2023-05-09T09:17:44.663Z,2.25
2023-05-09T09:20:15.967Z,2.53
2023-05-09T09:22:50.488Z,2.60
2023-05-09T09:25:18.798Z,2.47
2023-05-09T09:27:47.157Z,2.40
2023-05-09T09:30:16.723Z,2.90
2023-05-09T09:32:45.265Z,2.85
2023-05-09T09:35:14.326Z,2.80
2023-05-09T09:37:43.541Z,2.83
2023-05-09T09:40:14.810Z,2.88
2023-05-09T09:42:44.000Z,3.35
2023-05-09T09:45:14.096Z,2.42
2023-05-09T09:47:45.423Z,2.55
2023-05-09T09:50:15.710Z,2.53
2023-05-09T09:52:46.088Z,2.50
2023-05-09T09:55:16.481Z,2.13
2023-05-09T09:57:45.114Z,2.40
2023-05-09T10:00:16.464Z,2.10
2023-05-09T10:02:52.114Z,2.03
2023-05-09T10:05:22.227Z,2.65
2023-05-09T10:07:57.011Z,1.95
2023-05-09T10:10:28.741Z,2.00
2023-05-09T10:12:59.657Z,2.10
2023-05-09T10:15:35.653Z,2.60
2023-05-09T10:18:11.457Z,2.03
2023-05-09T10:20:41.236Z,2.53
2023-05-09T10:23:12.023Z,2.58
2023-05-09T10:25:48.890Z,2.42
2023-05-09T10:28:19.907Z,2.25
2023-05-09T10:30:58.266Z,2.17
2023-05-09T10:33:39.814Z,2.45
2023-05-09T10:36:09.226Z,2.20
2023-05-09T10:38:38.414Z,2.75
2023-05-09T10:41:08.440Z,2.55
2023-05-09T10:43:37.032Z,2.30
2023-05-09T10:46:06.257Z,2.30
2023-05-09T10:48:35.362Z,2.58
2023-05-09T10:51:05.254Z,2.42
2023-05-09T10:53:52.370Z,2.55
2023-05-09T10:56:27.039Z,2.20
2023-05-09T10:58:56.011Z,2.13
2023-05-09T11:01:32.823Z,2.63
2023-05-09T11:04:02.075Z,2.25
2023-05-09T11:06:45.321Z,2.30
2023-05-09T11:09:43.552Z,2.05
2023-05-09T11:12:14.905Z,2.10
2023-05-09T11:14:45.684Z,2.30
2023-05-09T11:17:15.237Z,2.17
2023-05-09T11:20:05.910Z,2.50
2023-05-09T11:22:41.465Z,2.67
2023-05-09T11:25:10.916Z,2.83
2023-05-09T11:27:43.497Z,2.50
2023-05-09T11:30:14.750Z,2.45
2023-05-09T11:32:46.228Z,3.08
2023-05-09T11:35:17.007Z,2.35
2023-05-09T11:37:50.842Z,2.53
2023-05-09T11:40:21.006Z,2.40
2023-05-09T11:42:56.221Z,2.45
2023-05-09T11:45:28.555Z,2.50
2023-05-09T11:47:58.094Z,2.30
2023-05-09T11:50:26.655Z,2.40
2023-05-09T11:52:55.794Z,2.88
2023-05-09T11:55:25.618Z,2.80
2023-05-09T11:57:55.835Z,2.67
2023-05-09T12:00:26.360Z,2.63
2023-05-09T12:02:54.865Z,2.42
2023-05-09T12:05:24.347Z,2.20
2023-05-09T12:07:52.879Z,2.38
2023-05-09T12:10:22.905Z,2.33
2023-05-09T12:12:53.159Z,2.10
2023-05-09T12:15:23.080Z,2.45
2023-05-09T12:18:03.038Z,2.45
2023-05-09T12:20:42.141Z,2.30
2023-05-09T12:23:12.608Z,2.90
2023-05-09T12:25:40.952Z,2.38
2023-05-09T12:28:09.269Z,2.10
2023-05-09T12:30:39.280Z,2.58
2023-05-09T12:33:10.546Z,2.72
2023-05-09T12:35:41.129Z,2.38
2023-05-09T12:38:09.290Z,2.05
2023-05-09T12:40:37.601Z,2.10
2023-05-09T12:43:06.068Z,2.08
2023-05-09T12:45:34.763Z,2.30
2023-05-09T12:48:05.264Z,1.95
2023-05-09T12:50:34.963Z,2.28
2023-05-09T12:53:04.683Z,2.38
2023-05-09T12:55:39.707Z,2.30
2023-05-09T12:58:07.879Z,1.95
2023-05-09T13:00:45.625Z,2.10
2023-05-09T13:03:26.064Z,2.13
2023-05-09T13:05:59.326Z,3.28
2023-05-09T13:08:27.478Z,2.42
2023-05-09T13:11:07.857Z,2.22
2023-05-09T13:13:43.507Z,2.35
2023-05-09T13:16:14.891Z,2.17
2023-05-09T13:18:46.660Z,2.55
2023-05-09T13:21:14.756Z,2.33
2023-05-09T13:23:44.539Z,2.08
2023-05-09T13:26:12.665Z,1.92
2023-05-09T13:28:40.800Z,2.30
2023-05-09T13:31:09.230Z,2.10
2023-05-09T13:33:37.481Z,2.08
2023-05-09T13:36:07.767Z,2.47
2023-05-09T13:38:39.045Z,2.20
2023-05-09T13:41:07.777Z,2.47
2023-05-09T13:43:37.460Z,2.30
2023-05-09T13:46:05.970Z,2.25
2023-05-09T13:48:34.182Z,2.65
2023-05-09T13:51:02.362Z,2.63
2023-05-09T13:53:31.814Z,2.30
2023-05-09T13:55:59.926Z,2.20
2023-05-09T13:58:28.132Z,2.47
2023-05-09T14:00:56.640Z,2.08
2023-05-09T14:03:24.795Z,2.30
2023-05-09T14:05:53.258Z,2.35
2023-05-09T14:08:21.488Z,2.40
2023-05-09T14:10:51.464Z,1.90
2023-05-09T14:13:19.657Z,2.65
2023-05-09T14:15:48.208Z,1.92
2023-05-09T14:18:20.066Z,2.65
2023-05-09T14:20:49.552Z,2.20
2023-05-09T14:23:17.699Z,2.42
2023-05-09T14:25:45.904Z,2.17
2023-05-09T14:28:15.681Z,2.50
2023-05-09T14:30:43.812Z,2.20
2023-05-09T14:33:12.294Z,2.15
2023-05-09T14:35:41.753Z,1.98
2023-05-09T14:38:10.081Z,2.28
2023-05-09T14:40:38.561Z,2.22
2023-05-09T14:43:06.737Z,1.85
2023-05-09T14:45:36.879Z,2.30
2023-05-09T14:48:05.232Z,1.75
2023-05-09T14:50:33.515Z,2.00
2023-05-09T14:53:02.498Z,1.98
2023-05-09T14:55:31.349Z,2.00
2023-05-09T14:57:59.594Z,2.03
2023-05-09T15:00:29.110Z,1.60
2023-05-09T15:02:58.866Z,1.73
2023-05-09T15:05:27.321Z,1.83
2023-05-09T15:07:55.730Z,1.92
2023-05-09T15:10:24.233Z,1.90
2023-05-09T15:12:52.343Z,1.90
2023-05-09T15:15:23.543Z,1.88
2023-05-09T15:17:51.956Z,1.75
2023-05-09T15:20:21.669Z,1.50
2023-05-09T15:22:51.552Z,1.80
2023-05-09T15:25:19.779Z,1.83
2023-05-09T15:27:50.438Z,1.88
2023-05-09T15:30:18.658Z,1.65
2023-05-09T15:32:46.947Z,2.00
2023-05-09T15:35:16.128Z,1.73
2023-05-09T15:37:45.716Z,1.55
2023-05-09T15:40:14.560Z,1.67
2023-05-09T15:42:42.857Z,1.92
2023-05-09T15:45:11.351Z,1.70
2023-05-09T15:47:39.483Z,2.05
2023-05-09T15:50:09.177Z,2.28
2023-05-09T15:52:37.310Z,2.42
2023-05-09T15:55:08.977Z,2.25
2023-05-09T15:57:37.414Z,2.33
2023-05-09T16:00:06.455Z,1.63
2023-05-09T16:02:34.859Z,1.70
2023-05-09T16:05:02.961Z,2.00
2023-05-09T16:07:33.368Z,1.63
2023-05-09T16:10:03.612Z,1.77
2023-05-09T16:12:33.651Z,1.55
2023-05-09T16:15:02.217Z,1.90
2023-05-09T16:17:31.578Z,1.85
2023-05-09T16:20:00.365Z,1.67
2023-05-09T16:22:28.466Z,1.70
2023-05-09T16:24:56.559Z,1.60
2023-05-09T16:27:24.984Z,1.38
2023-05-09T16:29:54.481Z,1.75
2023-05-09T16:32:22.632Z,1.70
2023-05-09T16:34:50.725Z,1.52
2023-05-09T16:37:20.364Z,1.60
2023-05-09T16:39:48.471Z,1.70
2023-05-09T16:42:16.555Z,1.55
2023-05-09T16:44:44.715Z,1.40
2023-05-09T16:47:14.258Z,1.50
2023-05-09T16:49:42.376Z,1.40
2023-05-09T16:52:10.501Z,1.55
2023-05-09T16:54:38.667Z,1.35
2023-05-09T16:57:07.143Z,1.65
2023-05-09T16:59:35.302Z,3.08
2023-05-09T17:02:04.818Z,2.00
2023-05-09T17:04:36.727Z,1.70
2023-05-09T17:07:05.745Z,2.20
2023-05-09T17:09:33.953Z,1.73
2023-05-09T17:12:02.447Z,3.38
2023-05-09T17:14:30.568Z,1.75
2023-05-09T17:16:58.978Z,1.55
2023-05-09T17:19:27.252Z,1.60
2023-05-09T17:21:58.928Z,1.38
2023-05-09T17:24:27.560Z,1.40
2023-05-09T17:26:56.578Z,1.40
2023-05-09T17:29:24.681Z,1.65
2023-05-09T17:31:52.821Z,1.63
2023-05-09T17:34:21.257Z,2.70
2023-05-09T17:36:49.434Z,1.73
2023-05-09T17:39:19.360Z,1.40
2023-05-09T17:41:47.718Z,1.40
2023-05-09T17:44:16.011Z,1.50
2023-05-09T17:46:44.290Z,1.38
2023-05-09T17:49:14.128Z,1.60
2023-05-09T17:51:42.585Z,1.40
2023-05-09T17:54:11.402Z,1.42
2023-05-09T17:56:40.977Z,1.50
2023-05-09T17:59:09.145Z,1.70
2023-05-09T18:01:37.724Z,1.50
2023-05-09T18:04:06.336Z,1.60
2023-05-09T18:06:34.522Z,2.08
2023-05-09T18:09:03.249Z,1.33
2023-05-09T18:11:31.419Z,1.60
2023-05-09T18:14:00.962Z,1.60
2023-05-09T18:16:29.475Z,1.48
2023-05-09T18:18:59.264Z,1.20
2023-05-09T18:21:28.769Z,1.20
2023-05-09T18:23:57.396Z,1.40
2023-05-09T18:26:25.561Z,1.50
2023-05-09T18:28:53.990Z,1.40
2023-05-09T18:31:23.515Z,1.60
2023-05-09T18:33:51.938Z,1.30
2023-05-09T18:36:20.695Z,1.35
2023-05-09T18:38:49.098Z,1.10
2023-05-09T18:41:18.727Z,1.30
2023-05-09T18:43:46.928Z,1.30
2023-05-09T18:46:17.520Z,1.02
2023-05-09T18:48:48.435Z,1.20
2023-05-09T18:51:16.678Z,1.20
2023-05-09T18:53:45.226Z,1.15
2023-05-09T18:56:13.412Z,1.20
2023-05-09T18:58:41.547Z,1.40
2023-05-09T19:01:11.804Z,1.20
2023-05-09T19:03:45.604Z,1.00
2023-05-09T19:06:16.861Z,1.20
2023-05-09T19:08:45.468Z,1.30
2023-05-09T19:11:13.775Z,1.30
2023-05-09T19:13:48.837Z,1.15
2023-05-09T19:16:20.493Z,1.17
2023-05-09T19:18:48.878Z,1.23
2023-05-09T19:21:19.130Z,1.10
2023-05-09T19:23:49.290Z,1.55
2023-05-09T19:26:18.352Z,1.15
2023-05-09T19:28:47.201Z,1.48
2023-05-09T19:31:16.270Z,1.40
2023-05-09T19:33:45.863Z,1.17
2023-05-09T19:36:14.136Z,1.40
2023-05-09T19:38:43.789Z,1.38
2023-05-09T19:41:12.759Z,1.77
2023-05-09T19:43:41.154Z,1.40
2023-05-09T19:46:09.541Z,1.40
2023-05-09T19:48:37.792Z,1.33
2023-05-09T19:51:08.576Z,1.77
2023-05-09T19:53:36.737Z,1.40
2023-05-09T19:56:08.039Z,1.33
2023-05-09T19:58:36.548Z,1.33
2023-05-09T20:01:07.169Z,1.38
2023-05-09T20:03:37.119Z,1.45
2023-05-09T20:06:06.141Z,1.30
2023-05-09T20:08:34.283Z,1.55
2023-05-09T20:11:02.492Z,1.40
2023-05-09T20:13:32.067Z,1.50
2023-05-09T20:16:02.695Z,1.30
2023-05-09T20:18:33.543Z,1.40
2023-05-09T20:21:01.799Z,1.27
2023-05-09T20:23:31.460Z,1.33
2023-05-09T20:25:59.756Z,1.40
2023-05-09T20:28:28.786Z,1.55
2023-05-09T20:30:58.284Z,1.55
2023-05-09T20:33:26.526Z,1.60
2023-05-09T20:35:55.094Z,1.65
2023-05-09T20:38:23.312Z,1.40
2023-05-09T20:40:51.775Z,1.45
2023-05-09T20:43:20.519Z,1.80
2023-05-09T20:45:48.823Z,1.77
2023-05-09T20:48:18.825Z,1.55
2023-05-09T20:50:46.968Z,1.88
2023-05-09T20:53:15.967Z,1.52
2023-05-09T20:55:44.062Z,1.55
2023-05-09T20:58:15.163Z,1.73
2023-05-09T21:00:47.192Z,1.38
2023-05-09T21:03:15.655Z,1.73
2023-05-09T21:05:45.548Z,1.85
2023-05-09T21:08:13.663Z,1.90
2023-05-09T21:10:41.875Z,2.13
2023-05-09T21:13:10.315Z,1.77
2023-05-09T21:15:38.413Z,1.70
2023-05-09T21:18:06.945Z,1.67
2023-05-09T21:20:35.084Z,1.60
2023-05-09T21:23:04.970Z,1.60
2023-05-09T21:25:33.047Z,2.28
2023-05-09T21:28:01.153Z,1.75
2023-05-09T21:30:29.232Z,1.65
2023-05-09T21:32:57.639Z,1.73
2023-05-09T21:35:26.140Z,2.13
2023-05-09T21:37:54.549Z,2.10
2023-05-09T21:40:24.601Z,1.95
2023-05-09T21:42:52.991Z,1.92
2023-05-09T21:45:21.408Z,2.35
2023-05-09T21:47:49.568Z,1.70
2023-05-09T21:50:18.145Z,2.08
2023-05-09T21:52:46.482Z,2.20
2023-05-09T21:55:14.990Z,1.98
2023-05-09T21:57:44.460Z,1.92
2023-05-09T22:00:15.563Z,1.83
2023-05-09T22:02:44.020Z,2.08
2023-05-09T22:05:13.261Z,1.92
2023-05-09T22:07:41.411Z,2.20
2023-05-09T22:10:10.792Z,2.33
2023-05-09T22:12:38.951Z,2.10
2023-05-09T22:15:09.852Z,2.42
2023-05-09T22:17:38.012Z,2.10
2023-05-09T22:20:07.415Z,1.95
2023-05-09T22:22:35.564Z,2.00
2023-05-09T22:25:04.776Z,2.35
2023-05-09T22:27:33.012Z,2.50
2023-05-09T22:30:01.514Z,2.17
2023-05-09T22:32:31.148Z,2.28
2023-05-09T22:34:59.317Z,2.38
2023-05-09T22:37:27.475Z,2.20
2023-05-09T22:39:55.743Z,2.30
2023-05-09T22:42:24.304Z,2.55
2023-05-09T22:44:52.862Z,2.40
2023-05-09T22:47:21.405Z,2.10
2023-05-09T22:49:51.361Z,2.13
2023-05-09T22:52:20.187Z,2.30
2023-05-09T22:54:48.359Z,2.28
2023-05-09T22:57:18.022Z,2.47
2023-05-09T22:59:46.603Z,2.50
2023-05-09T23:02:14.731Z,2.28
2023-05-09T23:04:43.137Z,1.98
2023-05-09T23:07:13.373Z,2.90
2023-05-09T23:09:41.755Z,2.47
2023-05-09T23:12:10.801Z,2.20
2023-05-09T23:14:39.264Z,2.70
2023-05-09T23:17:07.395Z,2.45
2023-05-09T23:19:35.881Z,2.45
2023-05-09T23:22:04.948Z,2.38
2023-05-09T23:24:34.420Z,2.28
2023-05-09T23:27:03.500Z,2.30
2023-05-09T23:29:33.146Z,2.22
2023-05-09T23:32:01.252Z,2.30
2023-05-09T23:34:29.792Z,2.33
2023-05-09T23:36:57.885Z,2.10
2023-05-09T23:39:25.994Z,2.55
2023-05-09T23:41:55.714Z,1.95
2023-05-09T23:44:24.138Z,2.28
2023-05-09T23:46:52.823Z,2.30
2023-05-09T23:49:21.241Z,2.45
2023-05-09T23:51:49.788Z,2.50
2023-05-09T23:54:17.870Z,2.40
2023-05-09T23:56:48.034Z,2.70
2023-05-09T23:59:17.516Z,2.60
